sensor_id;sensor_type;location;lat;lon;timestamp;pressure;altitude;pressure_sealevel;temperature
67599;BMP280;62026;39.230;9.122;2022-08-01T00:01:13;100872.81;;;29.00
67599;BMP280;62026;39.230;9.122;2022-08-01T00:03:39;100868.16;;;29.00
67599;BMP280;62026;39.230;9.122;2022-08-01T00:06:06;100871.22;;;28.99
67599;BMP280;62026;39.230;9.122;2022-08-01T00:08:32;100880.28;;;29.03
67599;BMP280;62026;39.230;9.122;2022-08-01T00:10:58;100871.00;;;29.04
67599;BMP280;62026;39.230;9.122;2022-08-01T00:13:24;100878.25;;;29.00
67599;BMP280;62026;39.230;9.122;2022-08-01T00:15:50;100864.88;;;28.94
67599;BMP280;62026;39.230;9.122;2022-08-01T00:18:16;100864.88;;;28.94
67599;BMP280;62026;39.230;9.122;2022-08-01T00:20:42;100866.94;;;28.98
67599;BMP280;62026;39.230;9.122;2022-08-01T00:23:08;100856.16;;;28.89
67599;BMP280;62026;39.230;9.122;2022-08-01T00:25:34;100874.59;;;28.95
67599;BMP280;62026;39.230;9.122;2022-08-01T00:28:01;100854.84;;;28.86
67599;BMP280;62026;39.230;9.122;2022-08-01T00:30:27;100857.84;;;28.93
67599;BMP280;62026;39.230;9.122;2022-08-01T00:32:53;100869.66;;;28.98
67599;BMP280;62026;39.230;9.122;2022-08-01T00:35:19;100868.06;;;28.97
67599;BMP280;62026;39.230;9.122;2022-08-01T00:37:45;100866.00;;;28.93
67599;BMP280;62026;39.230;9.122;2022-08-01T00:40:11;100872.56;;;28.92
67599;BMP280;62026;39.230;9.122;2022-08-01T00:42:38;100858.38;;;28.87
67599;BMP280;62026;39.230;9.122;2022-08-01T00:45:04;100861.69;;;28.92
67599;BMP280;62026;39.230;9.122;2022-08-01T00:47:30;100847.31;;;28.92
67599;BMP280;62026;39.230;9.122;2022-08-01T00:49:57;100856.25;;;28.92
67599;BMP280;62026;39.230;9.122;2022-08-01T00:52:23;100841.94;;;28.83
67599;BMP280;62026;39.230;9.122;2022-08-01T00:54:50;100841.94;;;28.83
67599;BMP280;62026;39.230;9.122;2022-08-01T00:57:16;100838.78;;;28.81
67599;BMP280;62026;39.230;9.122;2022-08-01T00:59:42;100850.75;;;28.80
67599;BMP280;62026;39.230;9.122;2022-08-01T01:02:08;100856.03;;;28.85
67599;BMP280;62026;39.230;9.122;2022-08-01T01:04:34;100826.75;;;28.70
67599;BMP280;62026;39.230;9.122;2022-08-01T01:07:50;100847.38;;;28.83
67599;BMP280;62026;39.230;9.122;2022-08-01T01:10:42;100841.84;;;28.80
67599;BMP280;62026;39.230;9.122;2022-08-01T01:13:52;100839.88;;;28.80
67599;BMP280;62026;39.230;9.122;2022-08-01T01:16:21;100836.50;;;28.71
67599;BMP280;62026;39.230;9.122;2022-08-01T01:18:53;100851.81;;;28.76
67599;BMP280;62026;39.230;9.122;2022-08-01T01:24:04;100831.66;;;28.77
67599;BMP280;62026;39.230;9.122;2022-08-01T01:26:45;100831.84;;;28.72
67599;BMP280;62026;39.230;9.122;2022-08-01T01:29:28;100829.00;;;28.68
67599;BMP280;62026;39.230;9.122;2022-08-01T01:32:04;100825.84;;;28.66
67599;BMP280;62026;39.230;9.122;2022-08-01T01:34:38;100837.38;;;28.63
67599;BMP280;62026;39.230;9.122;2022-08-01T01:37:12;100828.78;;;28.61
67599;BMP280;62026;39.230;9.122;2022-08-01T01:39:41;100830.25;;;28.59
67599;BMP280;62026;39.230;9.122;2022-08-01T01:42:10;100817.63;;;28.54
67599;BMP280;62026;39.230;9.122;2022-08-01T01:44:38;100807.44;;;28.51
67599;BMP280;62026;39.230;9.122;2022-08-01T01:47:05;100816.16;;;28.57
67599;BMP280;62026;39.230;9.122;2022-08-01T01:49:33;100817.19;;;28.52
67599;BMP280;62026;39.230;9.122;2022-08-01T01:52:01;100819.78;;;28.48
67599;BMP280;62026;39.230;9.122;2022-08-01T01:54:45;100823.75;;;28.51
67599;BMP280;62026;39.230;9.122;2022-08-01T01:57:13;100819.13;;;28.51
67599;BMP280;62026;39.230;9.122;2022-08-01T01:59:41;100821.38;;;28.49
67599;BMP280;62026;39.230;9.122;2022-08-01T02:02:10;100818.97;;;28.48
67599;BMP280;62026;39.230;9.122;2022-08-01T02:04:42;100814.22;;;28.45
67599;BMP280;62026;39.230;9.122;2022-08-01T02:07:16;100812.16;;;28.42
67599;BMP280;62026;39.230;9.122;2022-08-01T02:09:45;100804.81;;;28.42
67599;BMP280;62026;39.230;9.122;2022-08-01T02:12:12;100806.72;;;28.42
67599;BMP280;62026;39.230;9.122;2022-08-01T02:14:40;100792.31;;;28.29
67599;BMP280;62026;39.230;9.122;2022-08-01T02:17:10;100816.03;;;28.41
67599;BMP280;62026;39.230;9.122;2022-08-01T02:19:37;100789.94;;;28.28
67599;BMP280;62026;39.230;9.122;2022-08-01T02:22:46;100802.16;;;28.34
67599;BMP280;62026;39.230;9.122;2022-08-01T02:25:50;100784.03;;;28.26
67599;BMP280;62026;39.230;9.122;2022-08-01T02:28:25;100801.38;;;28.33
67599;BMP280;62026;39.230;9.122;2022-08-01T02:31:01;100799.00;;;28.32
67599;BMP280;62026;39.230;9.122;2022-08-01T02:33:40;100792.50;;;28.24
67599;BMP280;62026;39.230;9.122;2022-08-01T02:36:07;100798.53;;;28.30
67599;BMP280;62026;39.230;9.122;2022-08-01T02:38:38;100802.69;;;28.27
67599;BMP280;62026;39.230;9.122;2022-08-01T02:41:10;100801.91;;;28.27
67599;BMP280;62026;39.230;9.122;2022-08-01T02:43:46;100794.44;;;28.24
67599;BMP280;62026;39.230;9.122;2022-08-01T02:46:26;100798.75;;;28.25
67599;BMP280;62026;39.230;9.122;2022-08-01T02:48:56;100783.13;;;28.22
67599;BMP280;62026;39.230;9.122;2022-08-01T02:51:25;100786.97;;;28.21
67599;BMP280;62026;39.230;9.122;2022-08-01T02:53:54;100790.81;;;28.20
67599;BMP280;62026;39.230;9.122;2022-08-01T02:56:22;100774.91;;;28.09
67599;BMP280;62026;39.230;9.122;2022-08-01T02:58:52;100782.97;;;28.18
67599;BMP280;62026;39.230;9.122;2022-08-01T03:01:19;100771.75;;;28.07
67599;BMP280;62026;39.230;9.122;2022-08-01T03:03:46;100788.75;;;28.17
67599;BMP280;62026;39.230;9.122;2022-08-01T03:06:14;100775.88;;;28.14
67599;BMP280;62026;39.230;9.122;2022-08-01T03:08:42;100780.16;;;28.15
67599;BMP280;62026;39.230;9.122;2022-08-01T03:11:11;100779.22;;;28.11
67599;BMP280;62026;39.230;9.122;2022-08-01T03:13:40;100796.22;;;28.20
67599;BMP280;62026;39.230;9.122;2022-08-01T03:16:09;100776.03;;;28.08
67599;BMP280;62026;39.230;9.122;2022-08-01T03:18:38;100780.78;;;28.12
67599;BMP280;62026;39.230;9.122;2022-08-01T03:21:08;100787.38;;;28.11
67599;BMP280;62026;39.230;9.122;2022-08-01T03:23:37;100782.88;;;28.15
67599;BMP280;62026;39.230;9.122;2022-08-01T03:26:05;100787.84;;;28.13
67599;BMP280;62026;39.230;9.122;2022-08-01T03:28:32;100780.22;;;28.06
67599;BMP280;62026;39.230;9.122;2022-08-01T03:30:59;100785.78;;;28.09
67599;BMP280;62026;39.230;9.122;2022-08-01T03:33:26;100786.56;;;28.10
67599;BMP280;62026;39.230;9.122;2022-08-01T03:35:54;100789.63;;;28.08
67599;BMP280;62026;39.230;9.122;2022-08-01T03:38:25;100786.91;;;28.08
67599;BMP280;62026;39.230;9.122;2022-08-01T03:40:59;100774.66;;;28.02
67599;BMP280;62026;39.230;9.122;2022-08-01T03:43:36;100787.56;;;28.05
67599;BMP280;62026;39.230;9.122;2022-08-01T03:46:10;100789.00;;;28.03
67599;BMP280;62026;39.230;9.122;2022-08-01T03:48:43;100794.09;;;28.04
67599;BMP280;62026;39.230;9.122;2022-08-01T03:51:14;100792.84;;;28.02
67599;BMP280;62026;39.230;9.122;2022-08-01T03:53:44;100798.63;;;28.00
67599;BMP280;62026;39.230;9.122;2022-08-01T03:56:17;100793.38;;;27.95
67599;BMP280;62026;39.230;9.122;2022-08-01T03:58:45;100811.50;;;27.91
67599;BMP280;62026;39.230;9.122;2022-08-01T04:01:12;100808.25;;;27.89
67599;BMP280;62026;39.230;9.122;2022-08-01T04:03:39;100811.34;;;27.88
67599;BMP280;62026;39.230;9.122;2022-08-01T04:06:07;100821.84;;;27.89
67599;BMP280;62026;39.230;9.122;2022-08-01T04:08:36;100813.63;;;27.77
67599;BMP280;62026;39.230;9.122;2022-08-01T04:11:02;100823.66;;;27.85
67599;BMP280;62026;39.230;9.122;2022-08-01T04:13:28;100826.81;;;27.87
67599;BMP280;62026;39.230;9.122;2022-08-01T04:15:55;100812.00;;;27.85
67599;BMP280;62026;39.230;9.122;2022-08-01T04:18:21;100822.06;;;27.84
67599;BMP280;62026;39.230;9.122;2022-08-01T04:20:47;100823.19;;;27.83
67599;BMP280;62026;39.230;9.122;2022-08-01T04:23:17;100820.47;;;27.83
67599;BMP280;62026;39.230;9.122;2022-08-01T04:25:47;100815.22;;;27.78
67599;BMP280;62026;39.230;9.122;2022-08-01T04:28:16;100826.53;;;27.80
67599;BMP280;62026;39.230;9.122;2022-08-01T04:30:46;100826.22;;;27.82
67599;BMP280;62026;39.230;9.122;2022-08-01T04:33:16;100830.56;;;27.83
67599;BMP280;62026;39.230;9.122;2022-08-01T04:35:46;100826.53;;;27.80
67599;BMP280;62026;39.230;9.122;2022-08-01T04:38:20;100827.22;;;27.77
67599;BMP280;62026;39.230;9.122;2022-08-01T04:40:48;100813.53;;;27.65
67599;BMP280;62026;39.230;9.122;2022-08-01T04:43:16;100836.16;;;27.78
67599;BMP280;62026;39.230;9.122;2022-08-01T04:45:44;100828.81;;;27.78
67599;BMP280;62026;39.230;9.122;2022-08-01T04:48:13;100835.69;;;27.76
67599;BMP280;62026;39.230;9.122;2022-08-01T04:50:41;100832.63;;;27.77
67599;BMP280;62026;39.230;9.122;2022-08-01T04:53:14;100817.41;;;27.64
67599;BMP280;62026;39.230;9.122;2022-08-01T04:55:43;100833.28;;;27.74
67599;BMP280;62026;39.230;9.122;2022-08-01T04:58:11;100834.41;;;27.73
67599;BMP280;62026;39.230;9.122;2022-08-01T05:00:37;100838.25;;;27.72
67599;BMP280;62026;39.230;9.122;2022-08-01T05:03:04;100839.38;;;27.71
67599;BMP280;62026;39.230;9.122;2022-08-01T05:05:30;100837.81;;;27.70
67599;BMP280;62026;39.230;9.122;2022-08-01T05:07:57;100838.06;;;27.77
67599;BMP280;62026;39.230;9.122;2022-08-01T05:10:23;100833.13;;;27.79
67599;BMP280;62026;39.230;9.122;2022-08-01T05:12:50;100831.97;;;27.80
67599;BMP280;62026;39.230;9.122;2022-08-01T05:15:16;100829.75;;;27.82
67599;BMP280;62026;39.230;9.122;2022-08-01T05:17:42;100831.44;;;27.87
67599;BMP280;62026;39.230;9.122;2022-08-01T05:20:09;100828.75;;;27.87
67599;BMP280;62026;39.230;9.122;2022-08-01T05:22:35;100829.97;;;27.89
67599;BMP280;62026;39.230;9.122;2022-08-01T05:25:02;100836.03;;;27.95
67599;BMP280;62026;39.230;9.122;2022-08-01T05:27:31;100840.03;;;27.97
67599;BMP280;62026;39.230;9.122;2022-08-01T05:29:57;100835.69;;;27.96
67599;BMP280;62026;39.230;9.122;2022-08-01T05:32:23;100838.13;;;27.98
67599;BMP280;62026;39.230;9.122;2022-08-01T05:34:49;100836.28;;;28.02
67599;BMP280;62026;39.230;9.122;2022-08-01T05:37:15;100825.06;;;27.91
67599;BMP280;62026;39.230;9.122;2022-08-01T05:39:41;100839.16;;;28.05
67599;BMP280;62026;39.230;9.122;2022-08-01T05:42:07;100828.66;;;27.95
67599;BMP280;62026;39.230;9.122;2022-08-01T05:44:33;100840.03;;;27.97
67599;BMP280;62026;39.230;9.122;2022-08-01T05:47:00;100842.69;;;28.06
67599;BMP280;62026;39.230;9.122;2022-08-01T05:49:26;100844.72;;;28.09
67599;BMP280;62026;39.230;9.122;2022-08-01T05:51:52;100833.25;;;28.03
67599;BMP280;62026;39.230;9.122;2022-08-01T05:54:18;100843.53;;;28.19
67599;BMP280;62026;39.230;9.122;2022-08-01T05:56:44;100840.09;;;28.09
67599;BMP280;62026;39.230;9.122;2022-08-01T05:59:10;100845.78;;;28.17
67599;BMP280;62026;39.230;9.122;2022-08-01T06:01:36;100834.38;;;28.44
67599;BMP280;62026;39.230;9.122;2022-08-01T06:04:02;100822.97;;;28.50
67599;BMP280;62026;39.230;9.122;2022-08-01T06:06:28;100830.78;;;28.52
67599;BMP280;62026;39.230;9.122;2022-08-01T06:08:55;100828.38;;;28.50
67599;BMP280;62026;39.230;9.122;2022-08-01T06:11:21;100836.72;;;28.66
67599;BMP280;62026;39.230;9.122;2022-08-01T06:13:47;100839.44;;;28.78
67599;BMP280;62026;39.230;9.122;2022-08-01T06:16:13;100834.94;;;28.82
67599;BMP280;62026;39.230;9.122;2022-08-01T06:18:39;100839.69;;;28.85
67599;BMP280;62026;39.230;9.122;2022-08-01T06:21:05;100839.03;;;28.88
67599;BMP280;62026;39.230;9.122;2022-08-01T06:23:31;100828.63;;;28.90
67599;BMP280;62026;39.230;9.122;2022-08-01T06:25:57;100844.81;;;28.99
67599;BMP280;62026;39.230;9.122;2022-08-01T06:28:24;100837.16;;;28.80
67599;BMP280;62026;39.230;9.122;2022-08-01T06:30:51;100842.59;;;28.80
67599;BMP280;62026;39.230;9.122;2022-08-01T06:33:17;100846.66;;;28.62
67599;BMP280;62026;39.230;9.122;2022-08-01T06:35:43;100844.13;;;28.57
67599;BMP280;62026;39.230;9.122;2022-08-01T06:38:09;100851.34;;;28.41
67599;BMP280;62026;39.230;9.122;2022-08-01T06:40:35;100842.31;;;28.49
67599;BMP280;62026;39.230;9.122;2022-08-01T06:43:01;100851.03;;;28.55
67599;BMP280;62026;39.230;9.122;2022-08-01T06:45:27;100850.75;;;28.68
67599;BMP280;62026;39.230;9.122;2022-08-01T06:47:53;100854.34;;;28.60
67599;BMP280;62026;39.230;9.122;2022-08-01T06:50:19;100854.28;;;28.48
67599;BMP280;62026;39.230;9.122;2022-08-01T06:52:45;100860.88;;;28.47
67599;BMP280;62026;39.230;9.122;2022-08-01T06:55:11;100858.31;;;28.63
67599;BMP280;62026;39.230;9.122;2022-08-01T06:57:49;100852.53;;;28.64
67599;BMP280;62026;39.230;9.122;2022-08-01T07:00:17;100852.97;;;28.54
67599;BMP280;62026;39.230;9.122;2022-08-01T07:02:46;100860.75;;;28.43
67599;BMP280;62026;39.230;9.122;2022-08-01T07:05:13;100849.28;;;28.59
67599;BMP280;62026;39.230;9.122;2022-08-01T07:07:39;100866.31;;;28.47
67599;BMP280;62026;39.230;9.122;2022-08-01T07:10:05;100861.13;;;28.54
67599;BMP280;62026;39.230;9.122;2022-08-01T07:12:32;100861.19;;;28.78
67599;BMP280;62026;39.230;9.122;2022-08-01T07:14:59;100866.31;;;28.80
67599;BMP280;62026;39.230;9.122;2022-08-01T07:17:25;100863.25;;;28.81
67599;BMP280;62026;39.230;9.122;2022-08-01T07:19:51;100860.84;;;28.68
67599;BMP280;62026;39.230;9.122;2022-08-01T07:22:17;100861.13;;;28.99
67599;BMP280;62026;39.230;9.122;2022-08-01T07:24:43;100859.94;;;29.45
67599;BMP280;62026;39.230;9.122;2022-08-01T07:27:09;100864.41;;;29.77
67599;BMP280;62026;39.230;9.122;2022-08-01T07:29:35;100867.97;;;29.66
67599;BMP280;62026;39.230;9.122;2022-08-01T07:32:01;100867.59;;;29.79
67599;BMP280;62026;39.230;9.122;2022-08-01T07:34:27;100873.91;;;30.08
67599;BMP280;62026;39.230;9.122;2022-08-01T07:36:53;100875.50;;;30.09
67599;BMP280;62026;39.230;9.122;2022-08-01T07:39:20;100871.38;;;30.15
67599;BMP280;62026;39.230;9.122;2022-08-01T07:41:46;100871.69;;;30.25
67599;BMP280;62026;39.230;9.122;2022-08-01T07:44:12;100877.13;;;30.25
67599;BMP280;62026;39.230;9.122;2022-08-01T07:46:38;100861.03;;;30.48
67599;BMP280;62026;39.230;9.122;2022-08-01T07:49:04;100876.56;;;30.76
67599;BMP280;62026;39.230;9.122;2022-08-01T07:51:30;100879.84;;;30.53
67599;BMP280;62026;39.230;9.122;2022-08-01T07:53:56;100873.88;;;30.63
67599;BMP280;62026;39.230;9.122;2022-08-01T07:56:22;100886.59;;;31.03
67599;BMP280;62026;39.230;9.122;2022-08-01T07:58:50;100879.66;;;30.90
67599;BMP280;62026;39.230;9.122;2022-08-01T08:01:16;100868.03;;;30.93
67599;BMP280;62026;39.230;9.122;2022-08-01T08:03:43;100880.06;;;31.23
67599;BMP280;62026;39.230;9.122;2022-08-01T08:06:09;100870.59;;;31.17
67599;BMP280;62026;39.230;9.122;2022-08-01T08:08:35;100875.34;;;31.20
67599;BMP280;62026;39.230;9.122;2022-08-01T08:11:01;100878.69;;;31.29
67599;BMP280;62026;39.230;9.122;2022-08-01T08:13:27;100880.06;;;31.23
67599;BMP280;62026;39.230;9.122;2022-08-01T08:15:54;100869.44;;;31.34
67599;BMP280;62026;39.230;9.122;2022-08-01T08:18:20;100871.47;;;31.21
67599;BMP280;62026;39.230;9.122;2022-08-01T08:20:46;100868.16;;;31.47
67599;BMP280;62026;39.230;9.122;2022-08-01T08:23:12;100878.13;;;31.39
67599;BMP280;62026;39.230;9.122;2022-08-01T08:25:59;100872.53;;;31.67
67599;BMP280;62026;39.230;9.122;2022-08-01T08:28:25;100869.09;;;31.19
67599;BMP280;62026;39.230;9.122;2022-08-01T08:30:51;100868.75;;;30.74
67599;BMP280;62026;39.230;9.122;2022-08-01T08:33:19;100868.97;;;31.16
67599;BMP280;62026;39.230;9.122;2022-08-01T08:35:45;100869.38;;;31.49
67599;BMP280;62026;39.230;9.122;2022-08-01T08:38:11;100872.06;;;31.14
67599;BMP280;62026;39.230;9.122;2022-08-01T08:40:37;100883.38;;;30.69
67599;BMP280;62026;39.230;9.122;2022-08-01T08:43:05;100874.91;;;30.87
67599;BMP280;62026;39.230;9.122;2022-08-01T08:45:33;100866.59;;;31.46
67599;BMP280;62026;39.230;9.122;2022-08-01T08:48:00;100868.66;;;31.52
67599;BMP280;62026;39.230;9.122;2022-08-01T08:50:27;100870.41;;;30.94
67599;BMP280;62026;39.230;9.122;2022-08-01T08:52:55;100865.91;;;30.86
67599;BMP280;62026;39.230;9.122;2022-08-01T08:55:23;100879.66;;;30.90
67599;BMP280;62026;39.230;9.122;2022-08-01T08:57:50;100878.44;;;30.87
67599;BMP280;62026;39.230;9.122;2022-08-01T09:00:18;100880.41;;;30.74
67599;BMP280;62026;39.230;9.122;2022-08-01T09:02:47;100864.38;;;30.57
67599;BMP280;62026;39.230;9.122;2022-08-01T09:05:15;100882.56;;;30.53
67599;BMP280;62026;39.230;9.122;2022-08-01T09:07:42;100869.34;;;30.67
67599;BMP280;62026;39.230;9.122;2022-08-01T09:10:08;100888.47;;;30.99
67599;BMP280;62026;39.230;9.122;2022-08-01T09:12:37;100888.84;;;30.69
67599;BMP280;62026;39.230;9.122;2022-08-01T09:15:03;100902.06;;;30.67
67599;BMP280;62026;39.230;9.122;2022-08-01T09:17:40;100904.94;;;30.74
67599;BMP280;62026;39.230;9.122;2022-08-01T09:20:08;100888.66;;;30.62
67599;BMP280;62026;39.230;9.122;2022-08-01T09:22:47;100900.22;;;30.71
67599;BMP280;62026;39.230;9.122;2022-08-01T09:25:13;100913.13;;;30.59
67599;BMP280;62026;39.230;9.122;2022-08-01T09:27:39;100895.00;;;30.66
67599;BMP280;62026;39.230;9.122;2022-08-01T09:30:16;100913.94;;;30.47
67599;BMP280;62026;39.230;9.122;2022-08-01T09:33:00;100914.63;;;30.56
67599;BMP280;62026;39.230;9.122;2022-08-01T09:35:35;100904.13;;;30.58
67599;BMP280;62026;39.230;9.122;2022-08-01T09:38:19;100912.16;;;30.67
67599;BMP280;62026;39.230;9.122;2022-08-01T09:40:55;100906.13;;;30.73
67599;BMP280;62026;39.230;9.122;2022-08-01T09:43:25;100895.78;;;30.51
67599;BMP280;62026;39.230;9.122;2022-08-01T09:45:52;100906.97;;;30.78
67599;BMP280;62026;39.230;9.122;2022-08-01T09:48:20;100901.72;;;30.85
67599;BMP280;62026;39.230;9.122;2022-08-01T09:50:50;100920.34;;;30.83
67599;BMP280;62026;39.230;9.122;2022-08-01T09:53:18;100913.78;;;30.84
67599;BMP280;62026;39.230;9.122;2022-08-01T09:55:45;100920.56;;;30.74
67599;BMP280;62026;39.230;9.122;2022-08-01T09:58:12;100916.56;;;30.71
67599;BMP280;62026;39.230;9.122;2022-08-01T10:00:39;100910.31;;;30.71
67599;BMP280;62026;39.230;9.122;2022-08-01T10:03:24;100912.53;;;30.81
67599;BMP280;62026;39.230;9.122;2022-08-01T10:05:51;100906.13;;;30.73
67599;BMP280;62026;39.230;9.122;2022-08-01T10:08:19;100912.53;;;30.81
67599;BMP280;62026;39.230;9.122;2022-08-01T10:11:11;100916.31;;;30.77
67599;BMP280;62026;39.230;9.122;2022-08-01T10:13:38;100919.03;;;30.77
67599;BMP280;62026;39.230;9.122;2022-08-01T10:16:06;100901.00;;;30.56
67599;BMP280;62026;39.230;9.122;2022-08-01T10:18:34;100912.19;;;30.55
67599;BMP280;62026;39.230;9.122;2022-08-01T10:21:03;100915.25;;;30.65
67599;BMP280;62026;39.230;9.122;2022-08-01T10:23:39;100924.06;;;30.47
67599;BMP280;62026;39.230;9.122;2022-08-01T10:26:09;100902.84;;;30.68
67599;BMP280;62026;39.230;9.122;2022-08-01T10:28:38;100912.03;;;30.63
67599;BMP280;62026;39.230;9.122;2022-08-01T10:31:06;100914.84;;;30.79
67599;BMP280;62026;39.230;9.122;2022-08-01T10:33:33;100917.81;;;30.46
67599;BMP280;62026;39.230;9.122;2022-08-01T10:36:02;100920.56;;;30.90
67599;BMP280;62026;39.230;9.122;2022-08-01T10:38:29;100928.75;;;30.90
67599;BMP280;62026;39.230;9.122;2022-08-01T10:40:59;100923.97;;;30.43
67599;BMP280;62026;39.230;9.122;2022-08-01T10:43:28;100918.50;;;30.43
67599;BMP280;62026;39.230;9.122;2022-08-01T10:45:55;100918.13;;;30.57
67599;BMP280;62026;39.230;9.122;2022-08-01T10:51:18;100913.44;;;30.57
67599;BMP280;62026;39.230;9.122;2022-08-01T10:53:52;100912.22;;;30.27
67599;BMP280;62026;39.230;9.122;2022-08-01T10:56:23;100920.59;;;30.34
67599;BMP280;62026;39.230;9.122;2022-08-01T10:59:02;100913.06;;;30.43
67599;BMP280;62026;39.230;9.122;2022-08-01T11:01:31;100916.88;;;30.54
67599;BMP280;62026;39.230;9.122;2022-08-01T11:04:08;100924.06;;;30.19
67599;BMP280;62026;39.230;9.122;2022-08-01T11:07:02;100914.53;;;30.13
67599;BMP280;62026;39.230;9.122;2022-08-01T11:12:18;100910.13;;;30.36
67599;BMP280;62026;39.230;9.122;2022-08-01T11:30:46;100898.41;;;30.08
67599;BMP280;62026;39.230;9.122;2022-08-01T11:33:15;100900.97;;;29.76
67599;BMP280;62026;39.230;9.122;2022-08-01T11:41:25;100911.19;;;29.67
67599;BMP280;62026;39.230;9.122;2022-08-01T11:44:00;100905.81;;;29.83
67599;BMP280;62026;39.230;9.122;2022-08-01T12:05:44;100904.97;;;30.47
67599;BMP280;62026;39.230;9.122;2022-08-01T12:08:10;100918.00;;;30.53
67599;BMP280;62026;39.230;9.122;2022-08-01T12:10:37;100915.47;;;30.60
67599;BMP280;62026;39.230;9.122;2022-08-01T12:13:06;100899.38;;;30.55
67599;BMP280;62026;39.230;9.122;2022-08-01T12:15:37;100914.09;;;30.39
67599;BMP280;62026;39.230;9.122;2022-08-01T12:18:05;100915.16;;;30.34
67599;BMP280;62026;39.230;9.122;2022-08-01T12:20:35;100894.44;;;30.45
67599;BMP280;62026;39.230;9.122;2022-08-01T12:23:06;100908.34;;;30.56
67599;BMP280;62026;39.230;9.122;2022-08-01T12:25:35;100909.69;;;30.78
67599;BMP280;62026;39.230;9.122;2022-08-01T12:28:05;100906.72;;;30.39
67599;BMP280;62026;39.230;9.122;2022-08-01T12:30:32;100899.66;;;30.38
67599;BMP280;62026;39.230;9.122;2022-08-01T12:33:05;100899.25;;;30.24
67599;BMP280;62026;39.230;9.122;2022-08-01T12:35:34;100905.19;;;30.69
67599;BMP280;62026;39.230;9.122;2022-08-01T12:38:15;100900.78;;;30.49
67599;BMP280;62026;39.230;9.122;2022-08-01T12:40:44;100891.63;;;30.57
67599;BMP280;62026;39.230;9.122;2022-08-01T12:43:16;100905.44;;;30.49
67599;BMP280;62026;39.230;9.122;2022-08-01T12:45:45;100889.94;;;30.37
67599;BMP280;62026;39.230;9.122;2022-08-01T12:48:16;100890.53;;;30.46
67599;BMP280;62026;39.230;9.122;2022-08-01T12:50:47;100898.78;;;30.62
67599;BMP280;62026;39.230;9.122;2022-08-01T12:53:15;100909.41;;;30.51
67599;BMP280;62026;39.230;9.122;2022-08-01T12:55:46;100888.72;;;30.50
67599;BMP280;62026;39.230;9.122;2022-08-01T12:58:15;100889.47;;;30.35
67599;BMP280;62026;39.230;9.122;2022-08-01T13:00:45;100897.72;;;30.66
67599;BMP280;62026;39.230;9.122;2022-08-01T13:03:14;100881.22;;;30.47
67599;BMP280;62026;39.230;9.122;2022-08-01T13:05:47;100878.72;;;30.54
67599;BMP280;62026;39.230;9.122;2022-08-01T13:10:43;100880.78;;;30.17
67599;BMP280;62026;39.230;9.122;2022-08-01T13:13:11;100888.75;;;30.10
67599;BMP280;62026;39.230;9.122;2022-08-01T13:15:41;100888.88;;;30.14
67599;BMP280;62026;39.230;9.122;2022-08-01T13:23:34;100905.22;;;30.14
67599;BMP280;62026;39.230;9.122;2022-08-01T13:26:01;100893.63;;;30.17
67599;BMP280;62026;39.230;9.122;2022-08-01T13:28:28;100894.34;;;30.02
67599;BMP280;62026;39.230;9.122;2022-08-01T13:31:05;100896.38;;;30.05
67599;BMP280;62026;39.230;9.122;2022-08-01T13:33:46;100891.59;;;30.14
67599;BMP280;62026;39.230;9.122;2022-08-01T13:36:14;100888.97;;;30.17
67599;BMP280;62026;39.230;9.122;2022-08-01T13:38:42;100886.66;;;30.32
67599;BMP280;62026;39.230;9.122;2022-08-01T13:41:27;100885.13;;;30.18
67599;BMP280;62026;39.230;9.122;2022-08-01T13:43:53;100884.63;;;30.28
67599;BMP280;62026;39.230;9.122;2022-08-01T13:46:20;100894.59;;;30.24
67599;BMP280;62026;39.230;9.122;2022-08-01T13:48:46;100872.72;;;30.21
67599;BMP280;62026;39.230;9.122;2022-08-01T13:51:12;100885.38;;;30.01
67599;BMP280;62026;39.230;9.122;2022-08-01T13:53:38;100872.31;;;30.07
67599;BMP280;62026;39.230;9.122;2022-08-01T13:56:05;100868.72;;;29.91
67599;BMP280;62026;39.230;9.122;2022-08-01T13:58:31;100874.31;;;30.22
67599;BMP280;62026;39.230;9.122;2022-08-01T14:00:57;100866.16;;;30.10
67599;BMP280;62026;39.230;9.122;2022-08-01T14:03:23;100868.31;;;29.76
67599;BMP280;62026;39.230;9.122;2022-08-01T14:05:49;100863.94;;;30.00
67599;BMP280;62026;39.230;9.122;2022-08-01T14:08:15;100869.56;;;30.19
67599;BMP280;62026;39.230;9.122;2022-08-01T14:10:41;100865.56;;;30.16
67599;BMP280;62026;39.230;9.122;2022-08-01T14:13:08;100852.47;;;29.94
67599;BMP280;62026;39.230;9.122;2022-08-01T14:15:34;100850.00;;;29.89
67599;BMP280;62026;39.230;9.122;2022-08-01T14:18:00;100857.53;;;29.68
67599;BMP280;62026;39.230;9.122;2022-08-01T14:20:26;100851.16;;;29.64
67599;BMP280;62026;39.230;9.122;2022-08-01T14:22:52;100860.13;;;29.64
67599;BMP280;62026;39.230;9.122;2022-08-01T14:25:18;100846.53;;;29.52
67599;BMP280;62026;39.230;9.122;2022-08-01T14:27:45;100851.50;;;29.74
67599;BMP280;62026;39.230;9.122;2022-08-01T14:30:12;100858.09;;;29.73
67599;BMP280;62026;39.230;9.122;2022-08-01T14:32:38;100857.31;;;29.73
67599;BMP280;62026;39.230;9.122;2022-08-01T14:35:06;100857.53;;;29.80
67599;BMP280;62026;39.230;9.122;2022-08-01T14:37:33;100860.31;;;29.96
67599;BMP280;62026;39.230;9.122;2022-08-01T14:40:00;100856.66;;;30.04
67599;BMP280;62026;39.230;9.122;2022-08-01T14:42:33;100859.16;;;30.09
67599;BMP280;62026;39.230;9.122;2022-08-01T14:44:59;100851.44;;;29.99
67599;BMP280;62026;39.230;9.122;2022-08-01T14:47:25;100857.75;;;30.15
67599;BMP280;62026;39.230;9.122;2022-08-01T14:49:51;100867.59;;;29.79
67599;BMP280;62026;39.230;9.122;2022-08-01T14:52:17;100851.28;;;29.79
67599;BMP280;62026;39.230;9.122;2022-08-01T14:54:45;100855.81;;;29.75
67599;BMP280;62026;39.230;9.122;2022-08-01T14:57:11;100862.13;;;29.92
67599;BMP280;62026;39.230;9.122;2022-08-01T14:59:37;100858.25;;;30.05
67599;BMP280;62026;39.230;9.122;2022-08-01T15:02:03;100858.69;;;30.07
67599;BMP280;62026;39.230;9.122;2022-08-01T15:04:29;100856.47;;;29.97